CKS3 weather

Cudworth Airport
Cudworth, Saskatchewan, Canada

Public forecast

Using degrees Celsius for public forecast. Weather courtesy of forecast.io.

METAR (pilot weather report)

Closest report is Saskatoon John G. Diefenbaker International Airport, 39.3 nm (72.7 km) WSW. Retrieved 2019/05/22 18:00 UTC (8 minutes ago):

CYXE 221800Z 05011G23KT 010V080 15SM SCT090 SCT300 22/00 A3000 RMK AC3CI1 SLP171 DENSITY ALT 2800FT

TAF (pilot weather forecast)

Closest forecast is Saskatoon John G. Diefenbaker International Airport, 39.3 nm (72.7 km) WSW. Retrieved 2019/05/22 18:39 UTC (0 seconds ago):

TAF CYXE 221738Z 2218/2318 02015G25KT P6SM SCT080 FM222300 04012KT P6SM SCT100 BECMG 2303/2305 06008KT FM231000 10006KT P6SM SKC BECMG 2311/2313 16008KT RMK NXT FCST BY 230000Z